SWA1353 KDEN-KONT
Flight info
| Callsign | SWA1353 |
|---|---|
| Flight time | N/A |
| Altitude | 38000 |
| Route | CONNR8 WERNR ZAKRY BUGGG Q114 NATEE JCKIE2 |
| Aircraft | B738/M-VGDW/C |
Departure
| Time | 2026-05-06 21:13 |
|---|---|
| Airport | Denver International Airport (KDEN) |
Arrival
| Time | N/A |
|---|---|
| Airport | Ontario International Airport (KONT) |
| Time | Latitude | Longitude | Altitude | Speed | Heading |
|---|---|---|---|---|---|
| 2026-05-06 21:02 | 39.86270 | -104.67207 | 5441 ft | 0 kts | 359° |
| 2026-05-06 21:05 | 39.86261 | -104.67207 | 5441 ft | 2 kts | 359° |
| 2026-05-06 21:05 | 39.86248 | -104.67206 | 5441 ft | 0 kts | 359° |
| 2026-05-06 21:06 | 39.86237 | -104.67206 | 5441 ft | 2 kts | 359° |
| 2026-05-06 21:06 | 39.86219 | -104.67206 | 5441 ft | 3 kts | 359° |
| 2026-05-06 21:07 | 39.86198 | -104.67205 | 5441 ft | 3 kts | 359° |
| 2026-05-06 21:07 | 39.86179 | -104.67204 | 5441 ft | 3 kts | 349° |
| 2026-05-06 21:07 | 39.86188 | -104.67220 | 5441 ft | 4 kts | 281° |
| 2026-05-06 21:07 | 39.86188 | -104.67232 | 5441 ft | 0 kts | 270° |
| 2026-05-06 21:08 | 39.86174 | -104.67257 | 5441 ft | 7 kts | 226° |
| 2026-05-06 21:08 | 39.86138 | -104.67336 | 5441 ft | 13 kts | 270° |
| 2026-05-06 21:08 | 39.86139 | -104.67487 | 5441 ft | 20 kts | 270° |
| 2026-05-06 21:08 | 39.86140 | -104.67704 | 5441 ft | 25 kts | 270° |
| 2026-05-06 21:09 | 39.86141 | -104.67892 | 5441 ft | 19 kts | 271° |
| 2026-05-06 21:09 | 39.86142 | -104.68039 | 5441 ft | 14 kts | 271° |
| 2026-05-06 21:09 | 39.86144 | -104.68148 | 5441 ft | 10 kts | 271° |
| 2026-05-06 21:09 | 39.86144 | -104.68226 | 5441 ft | 8 kts | 271° |
| 2026-05-06 21:10 | 39.86144 | -104.68293 | 5441 ft | 7 kts | 269° |
| 2026-05-06 21:10 | 39.86151 | -104.68360 | 5441 ft | 8 kts | 297° |
| 2026-05-06 21:10 | 39.86197 | -104.68401 | 5441 ft | 9 kts | 358° |
| 2026-05-06 21:10 | 39.86269 | -104.68397 | 5441 ft | 11 kts | 5° |
| 2026-05-06 21:11 | 39.86356 | -104.68389 | 5441 ft | 14 kts | 1° |
| 2026-05-06 21:11 | 39.86435 | -104.68440 | 5441 ft | 12 kts | 264° |
| 2026-05-06 21:11 | 39.86430 | -104.68529 | 5441 ft | 8 kts | 270° |
| 2026-05-06 21:11 | 39.86430 | -104.68557 | 5441 ft | 0 kts | 271° |
| 2026-05-06 21:12 | 39.86431 | -104.68584 | 5441 ft | 7 kts | 271° |
| 2026-05-06 21:12 | 39.86438 | -104.68670 | 5441 ft | 10 kts | 287° |
| 2026-05-06 21:12 | 39.86524 | -104.68719 | 5441 ft | 31 kts | 1° |
| 2026-05-06 21:12 | 39.86952 | -104.68713 | 5441 ft | 91 kts | 0° |
| 2026-05-06 21:13 | 39.87773 | -104.68704 | 5441 ft | 146 kts | 0° |
| 2026-05-06 21:13 | 39.88950 | -104.68695 | 5562 ft | 184 kts | 0° |
| 2026-05-06 21:13 | 39.90254 | -104.68925 | 6186 ft | 199 kts | 344° |
| 2026-05-06 21:13 | 39.91320 | -104.70051 | 6886 ft | 201 kts | 323° |
| 2026-05-06 21:14 | 39.91853 | -104.71662 | 7562 ft | 188 kts | 288° |
| 2026-05-06 21:14 | 39.91698 | -104.73490 | 8125 ft | 209 kts | 257° |
| 2026-05-06 21:14 | 39.91002 | -104.75240 | 8778 ft | 239 kts | 240° |
| 2026-05-06 21:14 | 39.90578 | -104.76081 | 9026 ft | 253 kts | 237° |
| 2026-05-06 21:15 | 39.89526 | -104.77960 | 9533 ft | 251 kts | 233° |
| 2026-05-06 21:15 | 39.88441 | -104.79801 | 10050 ft | 253 kts | 233° |
| 2026-05-06 21:15 | 39.87344 | -104.81664 | 10809 ft | 269 kts | 233° |
| 2026-05-06 21:15 | 39.86194 | -104.83686 | 11580 ft | 287 kts | 235° |
| 2026-05-06 21:16 | 39.85084 | -104.85938 | 12352 ft | 300 kts | 240° |
| 2026-05-06 21:16 | 39.84103 | -104.88390 | 13118 ft | 314 kts | 245° |
| 2026-05-06 21:16 | 39.83247 | -104.91045 | 13879 ft | 325 kts | 250° |
| 2026-05-06 21:16 | 39.82498 | -104.93872 | 14643 ft | 334 kts | 253° |
| 2026-05-06 21:17 | 39.82040 | -104.95874 | 15164 ft | 341 kts | 255° |
| 2026-05-06 21:17 | 39.81236 | -104.99901 | 16174 ft | 350 kts | 257° |
| 2026-05-06 21:17 | 39.80688 | -105.03004 | 16929 ft | 356 kts | 258° |
| 2026-05-06 21:17 | 39.80168 | -105.06159 | 17681 ft | 360 kts | 259° |
| 2026-05-06 21:18 | 39.79658 | -105.09394 | 18444 ft | 363 kts | 260° |
| 2026-05-06 21:18 | 39.79163 | -105.12614 | 19194 ft | 365 kts | 260° |
| 2026-05-06 21:18 | 39.78673 | -105.15843 | 19941 ft | 366 kts | 260° |
| 2026-05-06 21:18 | 39.78182 | -105.19082 | 20689 ft | 366 kts | 260° |
| 2026-05-06 21:19 | 39.77680 | -105.22339 | 21440 ft | 366 kts | 260° |
| 2026-05-06 21:19 | 39.77140 | -105.25567 | 22188 ft | 366 kts | 259° |
| 2026-05-06 21:19 | 39.76563 | -105.28770 | 22934 ft | 364 kts | 258° |
| 2026-05-06 21:19 | 39.75956 | -105.31951 | 23679 ft | 363 kts | 258° |
| 2026-05-06 21:20 | 39.75321 | -105.35143 | 24434 ft | 360 kts | 257° |
| 2026-05-06 21:20 | 39.74896 | -105.37224 | 24927 ft | 359 kts | 257° |
| 2026-05-06 21:20 | 39.74044 | -105.41346 | 25914 ft | 354 kts | 258° |
| 2026-05-06 21:20 | 39.73614 | -105.43412 | 26414 ft | 352 kts | 258° |
| 2026-05-06 21:21 | 39.72982 | -105.46446 | 27154 ft | 348 kts | 258° |
| 2026-05-06 21:21 | 39.72345 | -105.49496 | 27903 ft | 344 kts | 259° |
| 2026-05-06 21:21 | 39.71528 | -105.53411 | 28878 ft | 337 kts | 259° |
| 2026-05-06 21:21 | 39.71116 | -105.55383 | 29382 ft | 332 kts | 259° |
| 2026-05-06 21:22 | 39.70519 | -105.58251 | 30119 ft | 325 kts | 260° |
| 2026-05-06 21:22 | 39.69947 | -105.61023 | 30850 ft | 315 kts | 261° |
| 2026-05-06 21:22 | 39.69433 | -105.63739 | 31589 ft | 304 kts | 262° |
| 2026-05-06 21:22 | 39.68981 | -105.66344 | 32319 ft | 291 kts | 262° |
| 2026-05-06 21:23 | 39.68568 | -105.68862 | 33049 ft | 276 kts | 263° |
| 2026-05-06 21:23 | 39.68198 | -105.71213 | 33765 ft | 258 kts | 263° |
| 2026-05-06 21:23 | 39.67866 | -105.73408 | 34469 ft | 237 kts | 264° |
| 2026-05-06 21:23 | 39.67574 | -105.75394 | 35124 ft | 213 kts | 263° |
| 2026-05-06 21:24 | 39.67296 | -105.77209 | 33830 ft | 197 kts | 262° |
| 2026-05-06 21:24 | 39.66922 | -105.79187 | 29152 ft | 290 kts | 266° |
| 2026-05-06 21:24 | 39.66474 | -105.82190 | 21177 ft | 367 kts | 263° |